sensor_id;sensor_type;location;lat;lon;timestamp;pressure;altitude;pressure_sealevel;temperature;humidity
62126;BME280;48112;53.282;6.150;2022-08-03T00:00:03;101439.38;;;22.57;68.72
62126;BME280;48112;53.282;6.150;2022-08-03T00:01:16;101443.34;;;22.53;69.07
62126;BME280;48112;53.282;6.150;2022-08-03T00:02:19;101435.88;;;22.50;69.08
62126;BME280;48112;53.282;6.150;2022-08-03T00:03:22;101444.56;;;22.45;69.41
62126;BME280;48112;53.282;6.150;2022-08-03T00:04:26;101435.56;;;22.41;69.31
62126;BME280;48112;53.282;6.150;2022-08-03T00:05:37;101434.03;;;22.36;69.30
62126;BME280;48112;53.282;6.150;2022-08-03T00:06:41;101437.19;;;22.35;69.52
62126;BME280;48112;53.282;6.150;2022-08-03T00:07:45;101448.63;;;22.30;69.84
62126;BME280;48112;53.282;6.150;2022-08-03T00:08:50;101436.47;;;22.23;69.90
62126;BME280;48112;53.282;6.150;2022-08-03T00:09:54;101438.09;;;22.17;69.78
62126;BME280;48112;53.282;6.150;2022-08-03T00:10:57;101436.97;;;22.15;70.39
62126;BME280;48112;53.282;6.150;2022-08-03T00:12:00;101437.38;;;22.13;70.27
62126;BME280;48112;53.282;6.150;2022-08-03T00:13:03;101438.53;;;22.12;70.52
62126;BME280;48112;53.282;6.150;2022-08-03T00:14:07;101441.28;;;22.12;70.56
62126;BME280;48112;53.282;6.150;2022-08-03T00:15:10;101439.31;;;22.13;70.32
62126;BME280;48112;53.282;6.150;2022-08-03T00:16:18;101431.88;;;22.10;70.45
62126;BME280;48112;53.282;6.150;2022-08-03T00:17:24;101441.31;;;22.09;70.20
62126;BME280;48112;53.282;6.150;2022-08-03T00:18:27;101435.81;;;22.09;70.15
62126;BME280;48112;53.282;6.150;2022-08-03T00:19:30;101446.03;;;22.08;70.24
62126;BME280;48112;53.282;6.150;2022-08-03T00:20:33;101433.06;;;22.09;70.60
62126;BME280;48112;53.282;6.150;2022-08-03T00:21:37;101440.16;;;22.06;70.47
62126;BME280;48112;53.282;6.150;2022-08-03T00:22:41;101439.78;;;22.04;70.12
62126;BME280;48112;53.282;6.150;2022-08-03T00:23:43;101436.25;;;22.04;70.32
62126;BME280;48112;53.282;6.150;2022-08-03T00:24:53;101435.47;;;22.03;70.46
62126;BME280;48112;53.282;6.150;2022-08-03T00:25:55;101429.97;;;22.03;69.90
62126;BME280;48112;53.282;6.150;2022-08-03T00:26:59;101434.69;;;21.99;69.88
62126;BME280;48112;53.282;6.150;2022-08-03T00:28:01;101433.94;;;21.99;70.58
62126;BME280;48112;53.282;6.150;2022-08-03T00:29:05;101424.91;;;21.95;70.22
62126;BME280;48112;53.282;6.150;2022-08-03T00:30:08;101431.19;;;21.95;70.56
62126;BME280;48112;53.282;6.150;2022-08-03T00:31:12;101428.44;;;21.95;70.46
62126;BME280;48112;53.282;6.150;2022-08-03T00:32:15;101429.66;;;21.94;70.88
62126;BME280;48112;53.282;6.150;2022-08-03T00:33:21;101422.94;;;21.95;70.85
62126;BME280;48112;53.282;6.150;2022-08-03T00:34:25;101419.81;;;21.93;70.51
62126;BME280;48112;53.282;6.150;2022-08-03T00:35:47;101426.84;;;22.01;70.75
62126;BME280;48112;53.282;6.150;2022-08-03T00:36:53;101424.88;;;22.02;70.46
62126;BME280;48112;53.282;6.150;2022-08-03T00:37:56;101428.03;;;22.00;70.31
62126;BME280;48112;53.282;6.150;2022-08-03T00:38:59;101433.53;;;22.00;70.49
62126;BME280;48112;53.282;6.150;2022-08-03T00:40:03;101423.69;;;21.99;70.59
62126;BME280;48112;53.282;6.150;2022-08-03T00:41:06;101422.88;;;22.02;70.77
62126;BME280;48112;53.282;6.150;2022-08-03T00:42:09;101424.06;;;22.05;70.18
62126;BME280;48112;53.282;6.150;2022-08-03T00:43:12;101416.59;;;22.05;70.34
62126;BME280;48112;53.282;6.150;2022-08-03T00:44:15;101437.81;;;22.05;70.77
62126;BME280;48112;53.282;6.150;2022-08-03T00:45:20;101422.88;;;22.02;70.24
62126;BME280;48112;53.282;6.150;2022-08-03T00:46:23;101423.69;;;22.03;70.63
62126;BME280;48112;53.282;6.150;2022-08-03T00:47:27;101425.63;;;22.06;70.10
62126;BME280;48112;53.282;6.150;2022-08-03T00:48:29;101431.91;;;22.06;70.34
62126;BME280;48112;53.282;6.150;2022-08-03T00:49:34;101424.81;;;22.09;70.56
62126;BME280;48112;53.282;6.150;2022-08-03T00:50:41;101426.00;;;22.08;70.68
62126;BME280;48112;53.282;6.150;2022-08-03T00:51:44;101422.84;;;22.09;70.14
62126;BME280;48112;53.282;6.150;2022-08-03T00:52:51;101418.53;;;22.08;70.44
62126;BME280;48112;53.282;6.150;2022-08-03T00:53:55;101419.72;;;22.07;70.52
62126;BME280;48112;53.282;6.150;2022-08-03T00:54:57;101415.78;;;22.08;70.55
62126;BME280;48112;53.282;6.150;2022-08-03T00:56:01;101418.16;;;22.06;70.61
62126;BME280;48112;53.282;6.150;2022-08-03T00:57:04;101423.66;;;22.06;70.53
62126;BME280;48112;53.282;6.150;2022-08-03T00:58:08;101416.19;;;22.07;70.07
62126;BME280;48112;53.282;6.150;2022-08-03T00:59:13;101416.97;;;22.07;70.69
62126;BME280;48112;53.282;6.150;2022-08-03T01:00:21;101407.56;;;22.05;70.74
62126;BME280;48112;53.282;6.150;2022-08-03T01:01:24;101414.69;;;21.99;70.93
62126;BME280;48112;53.282;6.150;2022-08-03T01:02:33;101407.66;;;21.91;71.00
62126;BME280;48112;53.282;6.150;2022-08-03T01:03:35;101412.03;;;21.85;70.88
62126;BME280;48112;53.282;6.150;2022-08-03T01:04:39;101399.47;;;21.80;71.15
62126;BME280;48112;53.282;6.150;2022-08-03T01:06:03;101407.34;;;21.78;71.70
62126;BME280;48112;53.282;6.150;2022-08-03T01:07:16;101412.84;;;21.78;71.58
62126;BME280;48112;53.282;6.150;2022-08-03T01:08:32;101406.56;;;21.74;71.53
62126;BME280;48112;53.282;6.150;2022-08-03T01:09:50;101408.16;;;21.68;71.43
62126;BME280;48112;53.282;6.150;2022-08-03T01:11:09;101401.53;;;21.62;71.85
62126;BME280;48112;53.282;6.150;2022-08-03T01:12:23;101398.81;;;21.59;71.71
62126;BME280;48112;53.282;6.150;2022-08-03T01:13:34;101402.34;;;21.56;72.11
62126;BME280;48112;53.282;6.150;2022-08-03T01:15:09;101406.25;;;21.58;72.06
62126;BME280;48112;53.282;6.150;2022-08-03T01:16:22;101394.91;;;21.56;71.53
62126;BME280;48112;53.282;6.150;2022-08-03T01:17:48;101402.75;;;21.58;71.78
62126;BME280;48112;53.282;6.150;2022-08-03T01:18:59;101403.50;;;21.58;71.76
62126;BME280;48112;53.282;6.150;2022-08-03T01:20:08;101412.13;;;21.60;72.19
62126;BME280;48112;53.282;6.150;2022-08-03T01:21:20;101410.53;;;21.63;71.97
62126;BME280;48112;53.282;6.150;2022-08-03T01:24:13;101406.63;;;21.64;72.06
62126;BME280;48112;53.282;6.150;2022-08-03T01:25:33;101411.34;;;21.63;72.14
62126;BME280;48112;53.282;6.150;2022-08-03T01:27:06;101403.50;;;21.58;71.98
62126;BME280;48112;53.282;6.150;2022-08-03T01:28:21;101403.91;;;21.57;71.67
62126;BME280;48112;53.282;6.150;2022-08-03T01:30:04;101401.97;;;21.54;71.56
62126;BME280;48112;53.282;6.150;2022-08-03T01:31:12;101405.13;;;21.52;71.73
62126;BME280;48112;53.282;6.150;2022-08-03T01:32:20;101404.72;;;21.50;72.15
62126;BME280;48112;53.282;6.150;2022-08-03T01:33:51;101400.41;;;21.49;72.26
62126;BME280;48112;53.282;6.150;2022-08-03T01:35:03;101407.88;;;21.49;72.28
62126;BME280;48112;53.282;6.150;2022-08-03T01:36:11;101398.06;;;21.48;72.61
62126;BME280;48112;53.282;6.150;2022-08-03T01:37:21;101395.31;;;21.48;72.80
62126;BME280;48112;53.282;6.150;2022-08-03T01:38:31;101399.66;;;21.45;72.54
62126;BME280;48112;53.282;6.150;2022-08-03T01:39:37;101396.53;;;21.43;72.83
62126;BME280;48112;53.282;6.150;2022-08-03T01:40:42;101398.50;;;21.39;73.04
62126;BME280;48112;53.282;6.150;2022-08-03T01:41:52;101405.97;;;21.39;73.12
62126;BME280;48112;53.282;6.150;2022-08-03T01:43:02;101402.84;;;21.37;73.33
62126;BME280;48112;53.282;6.150;2022-08-03T01:44:10;101391.06;;;21.36;73.72
62126;BME280;48112;53.282;6.150;2022-08-03T01:45:33;101397.34;;;21.37;73.48
62126;BME280;48112;53.282;6.150;2022-08-03T01:46:39;101391.88;;;21.33;73.14
62126;BME280;48112;53.282;6.150;2022-08-03T01:47:50;101388.72;;;21.31;73.21
62126;BME280;48112;53.282;6.150;2022-08-03T01:48:55;101393.06;;;21.32;73.11
62126;BME280;48112;53.282;6.150;2022-08-03T01:49:59;101395.81;;;21.32;73.25
62126;BME280;48112;53.282;6.150;2022-08-03T01:51:05;101389.91;;;21.30;73.51
62126;BME280;48112;53.282;6.150;2022-08-03T01:52:08;101396.59;;;21.29;73.69
62126;BME280;48112;53.282;6.150;2022-08-03T01:53:14;101388.75;;;21.28;73.41
62126;BME280;48112;53.282;6.150;2022-08-03T01:54:18;101399.75;;;21.24;73.68
62126;BME280;48112;53.282;6.150;2022-08-03T01:55:24;101392.69;;;21.23;73.87
62126;BME280;48112;53.282;6.150;2022-08-03T01:56:30;101382.13;;;21.18;73.39
62126;BME280;48112;53.282;6.150;2022-08-03T01:57:35;101387.19;;;21.23;73.90
62126;BME280;48112;53.282;6.150;2022-08-03T01:59:00;101383.28;;;21.21;73.50
62126;BME280;48112;53.282;6.150;2022-08-03T02:00:05;101392.69;;;21.23;73.58
62126;BME280;48112;53.282;6.150;2022-08-03T02:01:15;101376.22;;;21.23;73.48
62126;BME280;48112;53.282;6.150;2022-08-03T02:02:18;101387.19;;;21.27;73.09
62126;BME280;48112;53.282;6.150;2022-08-03T02:03:38;101387.19;;;21.27;73.25
62126;BME280;48112;53.282;6.150;2022-08-03T02:05:06;101385.63;;;21.26;73.28
62126;BME280;48112;53.282;6.150;2022-08-03T02:06:13;101384.06;;;21.25;72.84
62126;BME280;48112;53.282;6.150;2022-08-03T02:07:40;101380.13;;;21.26;73.18
62126;BME280;48112;53.282;6.150;2022-08-03T02:08:44;101383.28;;;21.24;73.33
62126;BME280;48112;53.282;6.150;2022-08-03T02:09:51;101383.69;;;21.19;73.17
62126;BME280;48112;53.282;6.150;2022-08-03T02:10:56;101377.81;;;21.17;73.19
62126;BME280;48112;53.282;6.150;2022-08-03T02:12:02;101376.25;;;21.16;73.43
62126;BME280;48112;53.282;6.150;2022-08-03T02:13:07;101381.75;;;21.16;73.15
62126;BME280;48112;53.282;6.150;2022-08-03T02:14:11;101379.00;;;21.20;72.99
62126;BME280;48112;53.282;6.150;2022-08-03T02:15:16;101380.16;;;21.19;73.26
62126;BME280;48112;53.282;6.150;2022-08-03T02:16:22;101375.44;;;21.19;73.55
62126;BME280;48112;53.282;6.150;2022-08-03T02:17:27;101376.66;;;21.18;73.30
62126;BME280;48112;53.282;6.150;2022-08-03T02:18:41;101372.72;;;21.19;73.13
62126;BME280;48112;53.282;6.150;2022-08-03T02:19:50;101371.50;;;21.20;73.25
62126;BME280;48112;53.282;6.150;2022-08-03T02:20:54;101368.00;;;21.20;73.01
62126;BME280;48112;53.282;6.150;2022-08-03T02:21:58;101370.75;;;21.20;73.46
62126;BME280;48112;53.282;6.150;2022-08-03T02:23:03;101375.44;;;21.23;73.16
62126;BME280;48112;53.282;6.150;2022-08-03T02:24:07;101381.69;;;21.23;72.92
62126;BME280;48112;53.282;6.150;2022-08-03T02:25:13;101371.09;;;21.25;72.83
62126;BME280;48112;53.282;6.150;2022-08-03T02:26:18;101376.59;;;21.25;72.82
62126;BME280;48112;53.282;6.150;2022-08-03T02:27:23;101382.50;;;21.24;73.14
62126;BME280;48112;53.282;6.150;2022-08-03T02:28:31;101382.09;;;21.22;73.13
62126;BME280;48112;53.282;6.150;2022-08-03T02:29:36;101376.22;;;21.23;72.96
62126;BME280;48112;53.282;6.150;2022-08-03T02:30:45;101375.84;;;21.25;73.04
62126;BME280;48112;53.282;6.150;2022-08-03T02:31:58;101380.94;;;21.26;72.96
62126;BME280;48112;53.282;6.150;2022-08-03T02:33:10;101377.00;;;21.27;72.66
62126;BME280;48112;53.282;6.150;2022-08-03T02:34:14;101376.19;;;21.27;72.76
62126;BME280;48112;53.282;6.150;2022-08-03T02:35:20;101375.44;;;21.26;72.57
62126;BME280;48112;53.282;6.150;2022-08-03T02:36:28;101364.44;;;21.26;72.88
62126;BME280;48112;53.282;6.150;2022-08-03T02:37:51;101369.94;;;21.26;72.66
62126;BME280;48112;53.282;6.150;2022-08-03T02:38:58;101373.44;;;21.27;72.81
62126;BME280;48112;53.282;6.150;2022-08-03T02:40:03;101377.00;;;21.27;72.57
62126;BME280;48112;53.282;6.150;2022-08-03T02:41:15;101366.78;;;21.28;72.46
62126;BME280;48112;53.282;6.150;2022-08-03T02:42:21;101364.44;;;21.26;72.56
62126;BME280;48112;53.282;6.150;2022-08-03T02:43:26;101367.19;;;21.26;72.65
62126;BME280;48112;53.282;6.150;2022-08-03T02:44:42;101357.38;;;21.22;72.88
62126;BME280;48112;53.282;6.150;2022-08-03T02:45:53;101366.03;;;21.20;72.93
62126;BME280;48112;53.282;6.150;2022-08-03T02:47:04;101361.34;;;21.17;72.84
62126;BME280;48112;53.282;6.150;2022-08-03T02:48:11;101367.22;;;21.19;73.27
62126;BME280;48112;53.282;6.150;2022-08-03T02:49:18;101366.41;;;21.19;72.89
62126;BME280;48112;53.282;6.150;2022-08-03T02:50:44;101360.53;;;21.20;73.13
62126;BME280;48112;53.282;6.150;2022-08-03T02:51:49;101366.03;;;21.20;72.97
62126;BME280;48112;53.282;6.150;2022-08-03T02:52:54;101368.41;;;21.18;73.28
62126;BME280;48112;53.282;6.150;2022-08-03T02:54:04;101354.69;;;21.18;72.97
62126;BME280;48112;53.282;6.150;2022-08-03T02:55:09;101357.41;;;21.18;73.26
62126;BME280;48112;53.282;6.150;2022-08-03T02:56:14;101354.69;;;21.18;73.25
62126;BME280;48112;53.282;6.150;2022-08-03T02:57:18;101348.78;;;21.16;72.94
62126;BME280;48112;53.282;6.150;2022-08-03T02:58:23;101352.72;;;21.15;72.87
62126;BME280;48112;53.282;6.150;2022-08-03T02:59:27;101359.78;;;21.16;73.26
62126;BME280;48112;53.282;6.150;2022-08-03T03:00:33;101359.78;;;21.16;73.33
62126;BME280;48112;53.282;6.150;2022-08-03T03:01:37;101358.59;;;21.14;73.02
62126;BME280;48112;53.282;6.150;2022-08-03T03:02:43;101361.38;;;21.10;73.19
62126;BME280;48112;53.282;6.150;2022-08-03T03:03:47;101353.16;;;21.07;73.24
62126;BME280;48112;53.282;6.150;2022-08-03T03:04:52;101351.97;;;21.04;73.39
62126;BME280;48112;53.282;6.150;2022-08-03T03:06:17;101357.47;;;21.04;73.69
62126;BME280;48112;53.282;6.150;2022-08-03T03:07:23;101350.41;;;21.00;73.71
62126;BME280;48112;53.282;6.150;2022-08-03T03:08:30;101347.69;;;21.00;73.33
62126;BME280;48112;53.282;6.150;2022-08-03T03:09:36;101349.28;;;20.97;73.62
62126;BME280;48112;53.282;6.150;2022-08-03T03:10:42;101354.34;;;20.95;73.55
62126;BME280;48112;53.282;6.150;2022-08-03T03:11:48;101346.50;;;20.94;73.46
62126;BME280;48112;53.282;6.150;2022-08-03T03:12:55;101349.25;;;20.94;73.64
62126;BME280;48112;53.282;6.150;2022-08-03T03:13:59;101349.25;;;20.94;73.51
62126;BME280;48112;53.282;6.150;2022-08-03T03:15:02;101345.69;;;20.93;73.84
62126;BME280;48112;53.282;6.150;2022-08-03T03:16:09;101343.34;;;20.95;73.84
62126;BME280;48112;53.282;6.150;2022-08-03T03:17:14;101350.06;;;20.98;73.74
62126;BME280;48112;53.282;6.150;2022-08-03T03:18:20;101356.69;;;21.00;73.52
62126;BME280;48112;53.282;6.150;2022-08-03T03:19:24;101352.81;;;20.98;73.44
62126;BME280;48112;53.282;6.150;2022-08-03T03:20:29;101361.00;;;21.01;73.32
62126;BME280;48112;53.282;6.150;2022-08-03T03:21:33;101368.88;;;20.99;73.65
62126;BME280;48112;53.282;6.150;2022-08-03T03:22:37;101364.94;;;21.00;73.84
62126;BME280;48112;53.282;6.150;2022-08-03T03:23:46;101367.69;;;21.00;73.51
62126;BME280;48112;53.282;6.150;2022-08-03T03:24:51;101360.63;;;20.99;73.60
62126;BME280;48112;53.282;6.150;2022-08-03T03:25:56;101365.34;;;20.99;73.67
62126;BME280;48112;53.282;6.150;2022-08-03T03:27:00;101361.41;;;21.00;73.36
62126;BME280;48112;53.282;6.150;2022-08-03T03:28:04;101361.41;;;21.00;73.37
62126;BME280;48112;53.282;6.150;2022-08-03T03:29:07;101359.44;;;21.00;73.45
62126;BME280;48112;53.282;6.150;2022-08-03T03:30:12;101357.50;;;20.97;73.92
62126;BME280;48112;53.282;6.150;2022-08-03T03:31:15;101367.69;;;20.97;73.51
62126;BME280;48112;53.282;6.150;2022-08-03T03:32:18;101355.94;;;20.96;73.77
62126;BME280;48112;53.282;6.150;2022-08-03T03:33:24;101365.34;;;20.99;73.55
62126;BME280;48112;53.282;6.150;2022-08-03T03:34:30;101363.75;;;21.01;73.22
62126;BME280;48112;53.282;6.150;2022-08-03T03:35:34;101363.75;;;21.01;73.22
62126;BME280;48112;53.282;6.150;2022-08-03T03:36:40;101370.44;;;21.00;73.65
62126;BME280;48112;53.282;6.150;2022-08-03T03:37:47;101365.34;;;20.99;73.65
62126;BME280;48112;53.282;6.150;2022-08-03T03:38:49;101362.59;;;20.99;73.83
62126;BME280;48112;53.282;6.150;2022-08-03T03:39:55;101358.69;;;20.96;73.50
62126;BME280;48112;53.282;6.150;2022-08-03T03:40:57;101361.00;;;20.94;73.69
62126;BME280;48112;53.282;6.150;2022-08-03T03:42:02;101363.75;;;20.94;73.61
62126;BME280;48112;53.282;6.150;2022-08-03T03:43:07;101355.53;;;20.94;73.85
62126;BME280;48112;53.282;6.150;2022-08-03T03:44:11;101370.03;;;20.95;73.99
62126;BME280;48112;53.282;6.150;2022-08-03T03:45:14;101367.66;;;20.93;73.82
62126;BME280;48112;53.282;6.150;2022-08-03T03:46:18;101359.84;;;20.92;73.60
62126;BME280;48112;53.282;6.150;2022-08-03T03:47:21;101366.13;;;20.92;73.58
62126;BME280;48112;53.282;6.150;2022-08-03T03:48:35;101365.72;;;20.94;73.54
62126;BME280;48112;53.282;6.150;2022-08-03T03:49:42;101367.28;;;20.95;73.46
62126;BME280;48112;53.282;6.150;2022-08-03T03:50:45;101367.66;;;20.93;73.66
62126;BME280;48112;53.282;6.150;2022-08-03T03:51:51;101365.31;;;20.95;73.50
62126;BME280;48112;53.282;6.150;2022-08-03T03:52:53;101366.94;;;20.96;73.57
62126;BME280;48112;53.282;6.150;2022-08-03T03:53:58;101372.41;;;20.96;73.73
62126;BME280;48112;53.282;6.150;2022-08-03T03:55:01;101365.75;;;20.97;73.53
62126;BME280;48112;53.282;6.150;2022-08-03T03:56:05;101361.44;;;20.96;73.38
62126;BME280;48112;53.282;6.150;2022-08-03T03:57:08;101365.31;;;20.95;73.63
62126;BME280;48112;53.282;6.150;2022-08-03T03:58:14;101364.91;;;20.93;74.00
62126;BME280;48112;53.282;6.150;2022-08-03T03:59:17;101368.84;;;20.92;73.73
62126;BME280;48112;53.282;6.150;2022-08-03T04:00:21;101370.06;;;20.88;73.82
62126;BME280;48112;53.282;6.150;2022-08-03T04:01:23;101361.41;;;20.89;74.01
62126;BME280;48112;53.282;6.150;2022-08-03T04:02:27;101372.41;;;20.89;73.72
62126;BME280;48112;53.282;6.150;2022-08-03T04:03:29;101370.06;;;20.91;74.00
62126;BME280;48112;53.282;6.150;2022-08-03T04:04:35;101370.44;;;20.90;73.61
62126;BME280;48112;53.282;6.150;2022-08-03T04:05:56;101361.41;;;20.89;73.98
62126;BME280;48112;53.282;6.150;2022-08-03T04:07:17;101355.19;;;20.85;73.68
62126;BME280;48112;53.282;6.150;2022-08-03T04:08:39;101363.00;;;20.83;73.68
62126;BME280;48112;53.282;6.150;2022-08-03T04:10:02;101359.88;;;20.81;73.76
62126;BME280;48112;53.282;6.150;2022-08-03T04:11:29;101360.66;;;20.78;73.68
62126;BME280;48112;53.282;6.150;2022-08-03T04:12:35;101357.53;;;20.76;74.18
62126;BME280;48112;53.282;6.150;2022-08-03T04:13:54;101363.03;;;20.76;73.96
62126;BME280;48112;53.282;6.150;2022-08-03T04:15:04;101371.25;;;20.76;73.80
62126;BME280;48112;53.282;6.150;2022-08-03T04:16:11;101364.59;;;20.77;73.94
62126;BME280;48112;53.282;6.150;2022-08-03T04:17:15;101363.41;;;20.74;74.22
62126;BME280;48112;53.282;6.150;2022-08-03T04:18:18;101358.34;;;20.73;74.25
62126;BME280;48112;53.282;6.150;2022-08-03T04:19:30;101369.31;;;20.73;74.52
62126;BME280;48112;53.282;6.150;2022-08-03T04:20:38;101366.16;;;20.71;74.20
62126;BME280;48112;53.282;6.150;2022-08-03T04:21:46;101372.44;;;20.68;74.25
62126;BME280;48112;53.282;6.150;2022-08-03T04:22:51;101368.53;;;20.69;74.54
62126;BME280;48112;53.282;6.150;2022-08-03T04:23:58;101368.53;;;20.69;74.71
62126;BME280;48112;53.282;6.150;2022-08-03T04:25:06;101366.19;;;20.67;74.53
62126;BME280;48112;53.282;6.150;2022-08-03T04:26:14;101373.25;;;20.72;74.38
62126;BME280;48112;53.282;6.150;2022-08-03T04:27:21;101377.16;;;20.71;74.35
62126;BME280;48112;53.282;6.150;2022-08-03T04:28:26;101368.91;;;20.71;74.77
62126;BME280;48112;53.282;6.150;2022-08-03T04:29:35;101372.44;;;20.71;74.37
62126;BME280;48112;53.282;6.150;2022-08-03T04:30:50;101373.63;;;20.70;74.30
62126;BME280;48112;53.282;6.150;2022-08-03T04:31:57;101374.41;;;20.71;74.46
62126;BME280;48112;53.282;6.150;2022-08-03T04:33:01;101384.97;;;20.72;74.53
62126;BME280;48112;53.282;6.150;2022-08-03T04:34:07;101387.31;;;20.74;74.65
62126;BME280;48112;53.282;6.150;2022-08-03T04:35:10;101383.03;;;20.73;74.26
62126;BME280;48112;53.282;6.150;2022-08-03T04:36:20;101383.41;;;20.75;74.70
62126;BME280;48112;53.282;6.150;2022-08-03T04:37:34;101381.06;;;20.77;74.28
62126;BME280;48112;53.282;6.150;2022-08-03T04:38:59;101382.63;;;20.78;74.27
62126;BME280;48112;53.282;6.150;2022-08-03T04:40:06;101381.84;;;20.81;74.33
62126;BME280;48112;53.282;6.150;2022-08-03T04:41:11;101386.53;;;20.80;73.75
62126;BME280;48112;53.282;6.150;2022-08-03T04:42:14;101381.03;;;20.80;74.46
62126;BME280;48112;53.282;6.150;2022-08-03T04:43:21;101375.59;;;20.77;74.39
62126;BME280;48112;53.282;6.150;2022-08-03T04:44:25;101381.84;;;20.81;74.15
62126;BME280;48112;53.282;6.150;2022-08-03T04:45:30;101383.03;;;20.80;74.20
62126;BME280;48112;53.282;6.150;2022-08-03T04:46:37;101386.53;;;20.80;74.68
62126;BME280;48112;53.282;6.150;2022-08-03T04:47:48;101384.97;;;20.83;74.12
62126;BME280;48112;53.282;6.150;2022-08-03T04:48:51;101386.53;;;20.84;74.43
62126;BME280;48112;53.282;6.150;2022-08-03T04:49:55;101390.47;;;20.83;74.35
62126;BME280;48112;53.282;6.150;2022-08-03T04:50:57;101390.84;;;20.85;74.10
62126;BME280;48112;53.282;6.150;2022-08-03T04:52:04;101388.13;;;20.85;74.12
62126;BME280;48112;53.282;6.150;2022-08-03T04:53:08;101384.97;;;20.87;74.41
62126;BME280;48112;53.282;6.150;2022-08-03T04:54:12;101386.53;;;20.88;74.15
62126;BME280;48112;53.282;6.150;2022-08-03T04:55:25;101391.22;;;20.87;74.58
62126;BME280;48112;53.282;6.150;2022-08-03T04:56:29;101394.34;;;20.89;74.41
62126;BME280;48112;53.282;6.150;2022-08-03T04:57:31;101394.34;;;20.89;74.55
62126;BME280;48112;53.282;6.150;2022-08-03T04:58:35;101382.63;;;20.85;74.51
62126;BME280;48112;53.282;6.150;2022-08-03T04:59:37;101394.34;;;20.89;74.52
62126;BME280;48112;53.282;6.150;2022-08-03T05:00:42;101395.13;;;20.93;74.23
62126;BME280;48112;53.282;6.150;2022-08-03T05:01:46;101388.47;;;20.94;74.53
62126;BME280;48112;53.282;6.150;2022-08-03T05:02:50;101384.97;;;20.97;74.37
62126;BME280;48112;53.282;6.150;2022-08-03T05:03:52;101398.28;;;21.02;74.41
62126;BME280;48112;53.282;6.150;2022-08-03T05:04:56;101386.50;;;21.05;74.33
62126;BME280;48112;53.282;6.150;2022-08-03T05:05:58;101389.63;;;21.07;74.31
62126;BME280;48112;53.282;6.150;2022-08-03T05:07:15;101387.25;;;21.09;74.07
62126;BME280;48112;53.282;6.150;2022-08-03T05:08:26;101387.25;;;21.09;74.11
62126;BME280;48112;53.282;6.150;2022-08-03T05:09:29;101389.63;;;21.07;74.35
62126;BME280;48112;53.282;6.150;2022-08-03T05:10:51;101395.88;;;21.11;74.33
62126;BME280;48112;53.282;6.150;2022-08-03T05:11:55;101394.69;;;21.12;74.40
62126;BME280;48112;53.282;6.150;2022-08-03T05:12:57;101393.94;;;21.12;74.16
62126;BME280;48112;53.282;6.150;2022-08-03T05:14:01;101391.94;;;21.12;74.29
62126;BME280;48112;53.282;6.150;2022-08-03T05:15:05;101400.56;;;21.14;74.20
62126;BME280;48112;53.282;6.150;2022-08-03T05:16:09;101393.53;;;21.13;74.30
62126;BME280;48112;53.282;6.150;2022-08-03T05:17:12;101403.72;;;21.16;74.37
62126;BME280;48112;53.282;6.150;2022-08-03T05:18:16;101402.53;;;21.17;74.30
62126;BME280;48112;53.282;6.150;2022-08-03T05:19:19;101397.44;;;21.19;74.61
62126;BME280;48112;53.282;6.150;2022-08-03T05:20:22;101398.19;;;21.23;74.60
62126;BME280;48112;53.282;6.150;2022-08-03T05:21:25;101393.06;;;21.25;74.52
62126;BME280;48112;53.282;6.150;2022-08-03T05:22:50;101398.16;;;21.30;74.07
62126;BME280;48112;53.282;6.150;2022-08-03T05:23:53;101404.03;;;21.32;74.56
62126;BME280;48112;53.282;6.150;2022-08-03T05:24:55;101396.97;;;21.35;74.06
62126;BME280;48112;53.282;6.150;2022-08-03T05:25:59;101395.75;;;21.39;74.61
62126;BME280;48112;53.282;6.150;2022-08-03T05:27:01;101391.44;;;21.45;74.25
62126;BME280;48112;53.282;6.150;2022-08-03T05:28:05;101394.13;;;21.52;74.41
62126;BME280;48112;53.282;6.150;2022-08-03T05:29:07;101406.63;;;21.60;74.43
62126;BME280;48112;53.282;6.150;2022-08-03T05:30:11;101395.63;;;21.67;73.95
62126;BME280;48112;53.282;6.150;2022-08-03T05:31:34;101406.56;;;21.81;74.01
62126;BME280;48112;53.282;6.150;2022-08-03T05:32:37;101401.75;;;21.92;73.16
62126;BME280;48112;53.282;6.150;2022-08-03T05:33:40;101403.25;;;22.04;72.99
62126;BME280;48112;53.282;6.150;2022-08-03T05:34:44;101403.16;;;22.14;72.83
62126;BME280;48112;53.282;6.150;2022-08-03T05:35:47;101405.38;;;22.30;72.05
62126;BME280;48112;53.282;6.150;2022-08-03T05:37:03;101416.25;;;22.44;71.80
62126;BME280;48112;53.282;6.150;2022-08-03T05:38:07;101420.91;;;22.58;71.17
62126;BME280;48112;53.282;6.150;2022-08-03T05:39:11;101418.44;;;22.67;70.96
62126;BME280;48112;53.282;6.150;2022-08-03T05:40:15;101421.88;;;22.78;70.52
62126;BME280;48112;53.282;6.150;2022-08-03T05:41:17;101424.88;;;22.90;70.36
62126;BME280;48112;53.282;6.150;2022-08-03T05:42:24;101430.66;;;23.03;69.81
62126;BME280;48112;53.282;6.150;2022-08-03T05:43:29;101430.91;;;23.15;69.33
62126;BME280;48112;53.282;6.150;2022-08-03T05:44:33;101427.28;;;23.25;68.77
62126;BME280;48112;53.282;6.150;2022-08-03T05:45:36;101431.41;;;23.40;68.52
62126;BME280;48112;53.282;6.150;2022-08-03T05:46:40;101435.59;;;23.52;67.84
62126;BME280;48112;53.282;6.150;2022-08-03T05:47:42;101434.69;;;23.62;67.64
62126;BME280;48112;53.282;6.150;2022-08-03T05:48:46;101435.72;;;23.72;67.06
62126;BME280;48112;53.282;6.150;2022-08-03T05:49:48;101434.44;;;23.80;67.06
62126;BME280;48112;53.282;6.150;2022-08-03T05:50:52;101438.22;;;23.89;66.64
62126;BME280;48112;53.282;6.150;2022-08-03T05:51:54;101436.50;;;24.02;66.17
62126;BME280;48112;53.282;6.150;2022-08-03T05:53:14;101440.28;;;24.12;65.40